sensor_id;sensor_type;location;lat;lon;timestamp;temperature;humidity
12438;DHT22;6283;51.330;12.374;2024-03-29T00:01:10;8.30;1.00
12438;DHT22;6283;51.330;12.374;2024-03-29T00:03:36;8.10;1.00
12438;DHT22;6283;51.330;12.374;2024-03-29T00:06:01;8.10;1.00
12438;DHT22;6283;51.330;12.374;2024-03-29T00:08:27;8.30;1.00
12438;DHT22;6283;51.330;12.374;2024-03-29T00:10:53;8.10;1.00
12438;DHT22;6283;51.330;12.374;2024-03-29T00:13:18;8.00;1.00
12438;DHT22;6283;51.330;12.374;2024-03-29T00:15:45;8.20;1.00
12438;DHT22;6283;51.330;12.374;2024-03-29T00:18:11;7.90;1.00
12438;DHT22;6283;51.330;12.374;2024-03-29T00:20:37;8.00;1.00
12438;DHT22;6283;51.330;12.374;2024-03-29T00:23:02;8.10;1.00
12438;DHT22;6283;51.330;12.374;2024-03-29T00:25:28;8.20;1.00
12438;DHT22;6283;51.330;12.374;2024-03-29T00:27:54;8.00;1.00
12438;DHT22;6283;51.330;12.374;2024-03-29T00:30:20;8.00;1.00
12438;DHT22;6283;51.330;12.374;2024-03-29T00:32:46;8.20;1.00
12438;DHT22;6283;51.330;12.374;2024-03-29T00:35:11;8.20;1.00
12438;DHT22;6283;51.330;12.374;2024-03-29T00:37:39;8.30;1.00
12438;DHT22;6283;51.330;12.374;2024-03-29T00:40:05;7.90;1.00
12438;DHT22;6283;51.330;12.374;2024-03-29T00:42:31;8.20;1.00
12438;DHT22;6283;51.330;12.374;2024-03-29T00:44:57;7.80;1.00
12438;DHT22;6283;51.330;12.374;2024-03-29T00:47:22;8.10;1.00
12438;DHT22;6283;51.330;12.374;2024-03-29T00:49:48;8.10;1.00
12438;DHT22;6283;51.330;12.374;2024-03-29T00:52:13;7.80;1.00
12438;DHT22;6283;51.330;12.374;2024-03-29T00:54:39;8.20;1.00
12438;DHT22;6283;51.330;12.374;2024-03-29T00:57:05;8.10;1.00
12438;DHT22;6283;51.330;12.374;2024-03-29T00:59:32;7.90;1.00
12438;DHT22;6283;51.330;12.374;2024-03-29T01:01:57;7.90;1.00
12438;DHT22;6283;51.330;12.374;2024-03-29T01:04:23;7.80;1.00
12438;DHT22;6283;51.330;12.374;2024-03-29T01:06:49;7.80;1.00
12438;DHT22;6283;51.330;12.374;2024-03-29T01:09:14;8.10;1.00
12438;DHT22;6283;51.330;12.374;2024-03-29T01:11:40;8.00;1.00
12438;DHT22;6283;51.330;12.374;2024-03-29T01:14:06;7.90;1.00
12438;DHT22;6283;51.330;12.374;2024-03-29T01:16:32;8.10;1.00
12438;DHT22;6283;51.330;12.374;2024-03-29T01:18:58;7.80;1.00
12438;DHT22;6283;51.330;12.374;2024-03-29T01:21:26;7.90;1.00
12438;DHT22;6283;51.330;12.374;2024-03-29T01:23:52;8.10;1.00
12438;DHT22;6283;51.330;12.374;2024-03-29T01:26:18;8.00;1.00
12438;DHT22;6283;51.330;12.374;2024-03-29T01:28:44;8.10;1.00
12438;DHT22;6283;51.330;12.374;2024-03-29T01:31:10;7.70;1.00
12438;DHT22;6283;51.330;12.374;2024-03-29T01:33:36;8.00;1.00
12438;DHT22;6283;51.330;12.374;2024-03-29T01:36:07;8.00;1.00
12438;DHT22;6283;51.330;12.374;2024-03-29T01:38:33;7.80;1.00
12438;DHT22;6283;51.330;12.374;2024-03-29T01:40:59;7.80;1.00
12438;DHT22;6283;51.330;12.374;2024-03-29T01:43:25;8.00;1.00
12438;DHT22;6283;51.330;12.374;2024-03-29T01:45:54;8.20;1.00
12438;DHT22;6283;51.330;12.374;2024-03-29T01:48:24;7.90;1.00
12438;DHT22;6283;51.330;12.374;2024-03-29T01:50:54;7.90;1.00
12438;DHT22;6283;51.330;12.374;2024-03-29T01:53:21;7.90;1.00
12438;DHT22;6283;51.330;12.374;2024-03-29T01:55:47;8.10;1.00
12438;DHT22;6283;51.330;12.374;2024-03-29T01:58:13;7.80;1.00
12438;DHT22;6283;51.330;12.374;2024-03-29T02:00:44;8.00;1.00
12438;DHT22;6283;51.330;12.374;2024-03-29T02:03:13;7.90;1.00
12438;DHT22;6283;51.330;12.374;2024-03-29T02:05:43;7.90;1.00
12438;DHT22;6283;51.330;12.374;2024-03-29T02:08:10;7.80;1.00
12438;DHT22;6283;51.330;12.374;2024-03-29T02:10:36;8.00;1.00
12438;DHT22;6283;51.330;12.374;2024-03-29T02:13:02;7.80;1.00
12438;DHT22;6283;51.330;12.374;2024-03-29T02:15:29;7.60;1.00
12438;DHT22;6283;51.330;12.374;2024-03-29T02:17:54;7.70;1.00
12438;DHT22;6283;51.330;12.374;2024-03-29T02:20:20;8.00;1.00
12438;DHT22;6283;51.330;12.374;2024-03-29T02:22:53;7.90;1.00
12438;DHT22;6283;51.330;12.374;2024-03-29T02:25:20;7.70;1.00
12438;DHT22;6283;51.330;12.374;2024-03-29T02:27:46;7.70;1.00
12438;DHT22;6283;51.330;12.374;2024-03-29T02:30:14;7.90;1.00
12438;DHT22;6283;51.330;12.374;2024-03-29T02:32:40;7.90;1.00
12438;DHT22;6283;51.330;12.374;2024-03-29T02:35:06;7.90;1.00
12438;DHT22;6283;51.330;12.374;2024-03-29T02:37:32;7.70;1.00
12438;DHT22;6283;51.330;12.374;2024-03-29T02:39:58;7.90;1.00
12438;DHT22;6283;51.330;12.374;2024-03-29T02:42:23;7.80;1.00
12438;DHT22;6283;51.330;12.374;2024-03-29T02:44:49;7.70;1.00
12438;DHT22;6283;51.330;12.374;2024-03-29T02:47:14;7.80;1.00
12438;DHT22;6283;51.330;12.374;2024-03-29T02:49:40;8.00;1.00
12438;DHT22;6283;51.330;12.374;2024-03-29T02:52:06;8.00;1.00
12438;DHT22;6283;51.330;12.374;2024-03-29T02:54:31;7.90;1.00
12438;DHT22;6283;51.330;12.374;2024-03-29T02:56:57;8.00;1.00
12438;DHT22;6283;51.330;12.374;2024-03-29T02:59:22;7.60;1.00
12438;DHT22;6283;51.330;12.374;2024-03-29T03:01:48;7.60;1.00
12438;DHT22;6283;51.330;12.374;2024-03-29T03:04:14;7.80;1.00
12438;DHT22;6283;51.330;12.374;2024-03-29T03:06:39;7.90;1.00
12438;DHT22;6283;51.330;12.374;2024-03-29T03:09:05;7.80;1.00
12438;DHT22;6283;51.330;12.374;2024-03-29T03:11:49;7.70;1.00
12438;DHT22;6283;51.330;12.374;2024-03-29T03:14:15;7.70;1.00
12438;DHT22;6283;51.330;12.374;2024-03-29T03:16:41;7.90;1.00
12438;DHT22;6283;51.330;12.374;2024-03-29T03:19:07;7.90;1.00
12438;DHT22;6283;51.330;12.374;2024-03-29T03:21:33;7.70;1.00
12438;DHT22;6283;51.330;12.374;2024-03-29T03:23:59;7.70;1.00
12438;DHT22;6283;51.330;12.374;2024-03-29T03:26:25;7.60;1.00
12438;DHT22;6283;51.330;12.374;2024-03-29T03:28:50;7.80;1.00
12438;DHT22;6283;51.330;12.374;2024-03-29T03:31:16;7.90;1.00
12438;DHT22;6283;51.330;12.374;2024-03-29T03:33:41;7.90;1.00
12438;DHT22;6283;51.330;12.374;2024-03-29T03:36:07;7.90;1.00
12438;DHT22;6283;51.330;12.374;2024-03-29T03:38:33;7.70;1.00
12438;DHT22;6283;51.330;12.374;2024-03-29T03:41:00;7.60;1.00
12438;DHT22;6283;51.330;12.374;2024-03-29T03:43:25;7.60;1.00
12438;DHT22;6283;51.330;12.374;2024-03-29T03:45:51;8.00;1.00
12438;DHT22;6283;51.330;12.374;2024-03-29T03:48:17;7.90;1.00
12438;DHT22;6283;51.330;12.374;2024-03-29T03:50:42;7.80;1.00
12438;DHT22;6283;51.330;12.374;2024-03-29T03:53:08;7.60;1.00
12438;DHT22;6283;51.330;12.374;2024-03-29T03:55:37;7.60;1.00
12438;DHT22;6283;51.330;12.374;2024-03-29T03:58:03;7.80;1.00
12438;DHT22;6283;51.330;12.374;2024-03-29T04:00:29;7.70;1.00
12438;DHT22;6283;51.330;12.374;2024-03-29T04:02:54;7.50;1.00
12438;DHT22;6283;51.330;12.374;2024-03-29T04:05:22;7.60;1.00
12438;DHT22;6283;51.330;12.374;2024-03-29T04:07:48;7.70;1.00
12438;DHT22;6283;51.330;12.374;2024-03-29T04:10:14;7.90;1.00
12438;DHT22;6283;51.330;12.374;2024-03-29T04:12:40;7.70;1.00
12438;DHT22;6283;51.330;12.374;2024-03-29T04:15:06;7.90;1.00
12438;DHT22;6283;51.330;12.374;2024-03-29T04:17:32;7.90;1.00
12438;DHT22;6283;51.330;12.374;2024-03-29T04:20:00;7.90;1.00
12438;DHT22;6283;51.330;12.374;2024-03-29T04:22:30;7.90;1.00
12438;DHT22;6283;51.330;12.374;2024-03-29T04:24:56;7.90;1.00
12438;DHT22;6283;51.330;12.374;2024-03-29T04:27:22;7.80;1.00
12438;DHT22;6283;51.330;12.374;2024-03-29T04:29:51;7.70;1.00
12438;DHT22;6283;51.330;12.374;2024-03-29T04:32:16;8.10;1.00
12438;DHT22;6283;51.330;12.374;2024-03-29T04:34:42;8.00;1.00
12438;DHT22;6283;51.330;12.374;2024-03-29T04:37:07;8.20;1.00
12438;DHT22;6283;51.330;12.374;2024-03-29T04:39:33;8.10;1.00
12438;DHT22;6283;51.330;12.374;2024-03-29T04:41:59;8.20;1.00
12438;DHT22;6283;51.330;12.374;2024-03-29T04:44:25;8.30;1.00
12438;DHT22;6283;51.330;12.374;2024-03-29T04:46:51;8.20;1.00
12438;DHT22;6283;51.330;12.374;2024-03-29T04:49:22;8.50;1.00
12438;DHT22;6283;51.330;12.374;2024-03-29T04:51:56;8.30;1.00
12438;DHT22;6283;51.330;12.374;2024-03-29T04:54:22;8.50;1.00
12438;DHT22;6283;51.330;12.374;2024-03-29T04:56:48;8.30;1.00
12438;DHT22;6283;51.330;12.374;2024-03-29T04:59:14;8.30;1.00
12438;DHT22;6283;51.330;12.374;2024-03-29T05:01:43;8.50;1.00
12438;DHT22;6283;51.330;12.374;2024-03-29T05:04:09;8.50;1.00
12438;DHT22;6283;51.330;12.374;2024-03-29T05:06:35;8.50;1.00
12438;DHT22;6283;51.330;12.374;2024-03-29T05:09:01;8.60;1.00
12438;DHT22;6283;51.330;12.374;2024-03-29T05:11:26;8.40;1.00
12438;DHT22;6283;51.330;12.374;2024-03-29T05:13:52;8.60;1.00
12438;DHT22;6283;51.330;12.374;2024-03-29T05:16:18;8.40;1.00
12438;DHT22;6283;51.330;12.374;2024-03-29T05:18:43;8.70;1.00
12438;DHT22;6283;51.330;12.374;2024-03-29T05:21:09;8.50;1.00
12438;DHT22;6283;51.330;12.374;2024-03-29T05:23:35;8.50;1.00
12438;DHT22;6283;51.330;12.374;2024-03-29T05:26:01;8.70;1.00
12438;DHT22;6283;51.330;12.374;2024-03-29T05:28:27;8.60;1.00
12438;DHT22;6283;51.330;12.374;2024-03-29T05:30:53;8.80;1.00
12438;DHT22;6283;51.330;12.374;2024-03-29T05:33:18;8.70;1.00
12438;DHT22;6283;51.330;12.374;2024-03-29T05:35:44;8.80;1.00
12438;DHT22;6283;51.330;12.374;2024-03-29T05:38:10;8.70;1.00
12438;DHT22;6283;51.330;12.374;2024-03-29T05:40:35;8.80;1.00
12438;DHT22;6283;51.330;12.374;2024-03-29T05:43:03;8.80;1.00
12438;DHT22;6283;51.330;12.374;2024-03-29T05:45:30;8.90;1.00
12438;DHT22;6283;51.330;12.374;2024-03-29T05:47:57;8.80;1.00
12438;DHT22;6283;51.330;12.374;2024-03-29T05:50:25;8.80;1.00
12438;DHT22;6283;51.330;12.374;2024-03-29T05:52:51;9.10;1.00
12438;DHT22;6283;51.330;12.374;2024-03-29T05:55:18;9.20;1.00
12438;DHT22;6283;51.330;12.374;2024-03-29T05:57:43;9.20;1.00
12438;DHT22;6283;51.330;12.374;2024-03-29T06:00:11;9.20;1.00
12438;DHT22;6283;51.330;12.374;2024-03-29T06:02:39;9.10;1.00
12438;DHT22;6283;51.330;12.374;2024-03-29T06:05:05;9.20;1.00
12438;DHT22;6283;51.330;12.374;2024-03-29T06:07:31;9.50;1.00
12438;DHT22;6283;51.330;12.374;2024-03-29T06:09:59;9.60;1.00
12438;DHT22;6283;51.330;12.374;2024-03-29T06:12:25;9.60;1.00
12438;DHT22;6283;51.330;12.374;2024-03-29T06:14:51;9.50;1.00
12438;DHT22;6283;51.330;12.374;2024-03-29T06:17:35;9.60;1.00
12438;DHT22;6283;51.330;12.374;2024-03-29T06:20:02;9.50;1.00
12438;DHT22;6283;51.330;12.374;2024-03-29T06:22:29;9.60;1.00
12438;DHT22;6283;51.330;12.374;2024-03-29T06:24:59;9.60;1.00
12438;DHT22;6283;51.330;12.374;2024-03-29T06:27:27;9.90;1.00
12438;DHT22;6283;51.330;12.374;2024-03-29T06:29:52;9.90;1.00
12438;DHT22;6283;51.330;12.374;2024-03-29T06:32:18;9.90;1.00
12438;DHT22;6283;51.330;12.374;2024-03-29T06:34:47;9.70;1.00
12438;DHT22;6283;51.330;12.374;2024-03-29T06:37:13;10.00;1.00
12438;DHT22;6283;51.330;12.374;2024-03-29T06:39:39;9.90;1.00
12438;DHT22;6283;51.330;12.374;2024-03-29T06:42:04;9.90;1.00
12438;DHT22;6283;51.330;12.374;2024-03-29T06:44:33;10.00;1.00
12438;DHT22;6283;51.330;12.374;2024-03-29T06:46:58;9.90;1.00
12438;DHT22;6283;51.330;12.374;2024-03-29T06:49:24;10.20;1.00
12438;DHT22;6283;51.330;12.374;2024-03-29T06:51:49;10.10;1.00
12438;DHT22;6283;51.330;12.374;2024-03-29T06:54:15;10.30;1.00
12438;DHT22;6283;51.330;12.374;2024-03-29T06:56:41;10.30;1.00
12438;DHT22;6283;51.330;12.374;2024-03-29T06:59:07;10.50;1.00
12438;DHT22;6283;51.330;12.374;2024-03-29T07:01:33;10.50;1.00
12438;DHT22;6283;51.330;12.374;2024-03-29T07:03:59;10.50;1.00
12438;DHT22;6283;51.330;12.374;2024-03-29T07:06:24;10.50;1.00
12438;DHT22;6283;51.330;12.374;2024-03-29T07:08:50;10.60;1.00
12438;DHT22;6283;51.330;12.374;2024-03-29T07:11:16;10.80;1.00
12438;DHT22;6283;51.330;12.374;2024-03-29T07:13:41;10.50;1.00
12438;DHT22;6283;51.330;12.374;2024-03-29T07:16:07;10.60;1.00
12438;DHT22;6283;51.330;12.374;2024-03-29T07:18:32;10.60;1.00
12438;DHT22;6283;51.330;12.374;2024-03-29T07:20:58;10.80;1.00
12438;DHT22;6283;51.330;12.374;2024-03-29T07:23:24;10.70;1.00
12438;DHT22;6283;51.330;12.374;2024-03-29T07:26:03;10.80;1.00
12438;DHT22;6283;51.330;12.374;2024-03-29T07:28:30;10.80;1.00
12438;DHT22;6283;51.330;12.374;2024-03-29T07:30:56;11.00;1.00
12438;DHT22;6283;51.330;12.374;2024-03-29T07:33:25;11.00;1.00
12438;DHT22;6283;51.330;12.374;2024-03-29T07:35:54;11.00;1.00
12438;DHT22;6283;51.330;12.374;2024-03-29T07:38:20;11.10;1.00
12438;DHT22;6283;51.330;12.374;2024-03-29T07:40:47;10.90;1.00
12438;DHT22;6283;51.330;12.374;2024-03-29T07:43:13;11.10;1.00
12438;DHT22;6283;51.330;12.374;2024-03-29T07:45:42;11.00;1.00
12438;DHT22;6283;51.330;12.374;2024-03-29T07:48:15;11.10;1.00
12438;DHT22;6283;51.330;12.374;2024-03-29T07:50:42;10.90;1.00
12438;DHT22;6283;51.330;12.374;2024-03-29T07:53:07;11.00;1.00
12438;DHT22;6283;51.330;12.374;2024-03-29T07:55:37;10.90;1.00
12438;DHT22;6283;51.330;12.374;2024-03-29T07:58:03;11.20;1.00
12438;DHT22;6283;51.330;12.374;2024-03-29T08:00:32;11.20;1.00
12438;DHT22;6283;51.330;12.374;2024-03-29T08:02:58;11.00;1.00
12438;DHT22;6283;51.330;12.374;2024-03-29T08:05:24;11.10;1.00
12438;DHT22;6283;51.330;12.374;2024-03-29T08:07:49;11.10;1.00
12438;DHT22;6283;51.330;12.374;2024-03-29T08:10:15;11.10;1.00
12438;DHT22;6283;51.330;12.374;2024-03-29T08:12:41;11.20;1.00
12438;DHT22;6283;51.330;12.374;2024-03-29T08:15:07;11.30;1.00
12438;DHT22;6283;51.330;12.374;2024-03-29T08:17:34;11.10;1.00
12438;DHT22;6283;51.330;12.374;2024-03-29T08:19:59;11.20;1.00
12438;DHT22;6283;51.330;12.374;2024-03-29T08:22:25;11.00;1.00
12438;DHT22;6283;51.330;12.374;2024-03-29T08:24:50;10.90;1.00
12438;DHT22;6283;51.330;12.374;2024-03-29T08:27:16;10.90;1.00
12438;DHT22;6283;51.330;12.374;2024-03-29T08:29:42;11.00;1.00
12438;DHT22;6283;51.330;12.374;2024-03-29T08:32:08;11.10;1.00
12438;DHT22;6283;51.330;12.374;2024-03-29T08:34:38;11.20;1.00
12438;DHT22;6283;51.330;12.374;2024-03-29T08:37:04;11.10;1.00
12438;DHT22;6283;51.330;12.374;2024-03-29T08:39:31;10.90;1.00
12438;DHT22;6283;51.330;12.374;2024-03-29T08:41:57;10.90;1.00
12438;DHT22;6283;51.330;12.374;2024-03-29T08:44:23;11.20;1.00
12438;DHT22;6283;51.330;12.374;2024-03-29T08:46:50;11.00;1.00
12438;DHT22;6283;51.330;12.374;2024-03-29T08:49:16;11.20;1.00
12438;DHT22;6283;51.330;12.374;2024-03-29T08:51:41;11.30;1.00
12438;DHT22;6283;51.330;12.374;2024-03-29T08:54:07;11.30;1.00
12438;DHT22;6283;51.330;12.374;2024-03-29T08:56:33;11.30;1.00
12438;DHT22;6283;51.330;12.374;2024-03-29T08:59:05;11.20;1.00
12438;DHT22;6283;51.330;12.374;2024-03-29T09:01:36;11.10;1.00
12438;DHT22;6283;51.330;12.374;2024-03-29T09:04:03;11.20;1.00
12438;DHT22;6283;51.330;12.374;2024-03-29T09:06:32;11.30;1.00
12438;DHT22;6283;51.330;12.374;2024-03-29T09:08:58;11.30;1.00
12438;DHT22;6283;51.330;12.374;2024-03-29T09:11:23;11.30;1.00
12438;DHT22;6283;51.330;12.374;2024-03-29T09:13:49;11.40;1.00
12438;DHT22;6283;51.330;12.374;2024-03-29T09:16:15;11.30;1.00
12438;DHT22;6283;51.330;12.374;2024-03-29T09:18:40;11.40;1.00
12438;DHT22;6283;51.330;12.374;2024-03-29T09:21:06;11.50;1.00
12438;DHT22;6283;51.330;12.374;2024-03-29T09:23:33;11.40;1.00
12438;DHT22;6283;51.330;12.374;2024-03-29T09:25:59;11.50;1.00
12438;DHT22;6283;51.330;12.374;2024-03-29T09:28:25;11.30;1.00
12438;DHT22;6283;51.330;12.374;2024-03-29T09:30:56;11.50;1.00
12438;DHT22;6283;51.330;12.374;2024-03-29T09:33:22;11.50;1.00
12438;DHT22;6283;51.330;12.374;2024-03-29T09:35:48;11.60;1.00
12438;DHT22;6283;51.330;12.374;2024-03-29T09:38:13;11.70;1.00
12438;DHT22;6283;51.330;12.374;2024-03-29T09:40:39;11.80;1.00
12438;DHT22;6283;51.330;12.374;2024-03-29T09:43:06;11.70;1.00
12438;DHT22;6283;51.330;12.374;2024-03-29T09:45:33;11.90;1.00
12438;DHT22;6283;51.330;12.374;2024-03-29T09:48:07;11.80;1.00
12438;DHT22;6283;51.330;12.374;2024-03-29T09:50:37;12.00;1.00
12438;DHT22;6283;51.330;12.374;2024-03-29T09:53:05;11.80;1.00
12438;DHT22;6283;51.330;12.374;2024-03-29T09:55:31;12.00;1.00
12438;DHT22;6283;51.330;12.374;2024-03-29T09:57:57;11.90;1.00
12438;DHT22;6283;51.330;12.374;2024-03-29T10:00:26;12.20;1.00
12438;DHT22;6283;51.330;12.374;2024-03-29T10:02:53;12.30;1.00
12438;DHT22;6283;51.330;12.374;2024-03-29T10:05:21;12.20;1.00
12438;DHT22;6283;51.330;12.374;2024-03-29T10:07:47;12.40;1.00
12438;DHT22;6283;51.330;12.374;2024-03-29T10:10:13;12.50;1.00
12438;DHT22;6283;51.330;12.374;2024-03-29T10:12:39;12.60;1.00
12438;DHT22;6283;51.330;12.374;2024-03-29T10:15:05;12.30;1.00
12438;DHT22;6283;51.330;12.374;2024-03-29T10:17:36;12.80;1.00
12438;DHT22;6283;51.330;12.374;2024-03-29T10:20:04;12.70;1.00
12438;DHT22;6283;51.330;12.374;2024-03-29T10:22:35;12.60;1.00
12438;DHT22;6283;51.330;12.374;2024-03-29T10:25:01;13.00;1.00
12438;DHT22;6283;51.330;12.374;2024-03-29T10:27:27;13.00;1.00
12438;DHT22;6283;51.330;12.374;2024-03-29T10:29:53;13.00;1.00
12438;DHT22;6283;51.330;12.374;2024-03-29T10:32:19;13.00;1.00
12438;DHT22;6283;51.330;12.374;2024-03-29T10:34:44;13.00;1.00
12438;DHT22;6283;51.330;12.374;2024-03-29T10:37:10;12.90;1.00
12438;DHT22;6283;51.330;12.374;2024-03-29T10:39:42;13.10;1.00
12438;DHT22;6283;51.330;12.374;2024-03-29T10:42:09;13.10;1.00
12438;DHT22;6283;51.330;12.374;2024-03-29T10:44:39;13.20;1.00
12438;DHT22;6283;51.330;12.374;2024-03-29T10:47:06;13.20;1.00
12438;DHT22;6283;51.330;12.374;2024-03-29T10:49:33;13.00;1.00
12438;DHT22;6283;51.330;12.374;2024-03-29T10:52:00;13.10;1.00
12438;DHT22;6283;51.330;12.374;2024-03-29T10:54:28;13.20;1.00
12438;DHT22;6283;51.330;12.374;2024-03-29T10:57:02;13.30;1.00
12438;DHT22;6283;51.330;12.374;2024-03-29T10:59:40;13.30;1.00
12438;DHT22;6283;51.330;12.374;2024-03-29T11:02:29;13.50;1.00
12438;DHT22;6283;51.330;12.374;2024-03-29T11:04:58;13.60;1.00
12438;DHT22;6283;51.330;12.374;2024-03-29T11:07:26;13.80;1.00
12438;DHT22;6283;51.330;12.374;2024-03-29T11:09:56;13.80;1.00
12438;DHT22;6283;51.330;12.374;2024-03-29T11:12:25;13.80;1.00
12438;DHT22;6283;51.330;12.374;2024-03-29T11:15:02;14.00;1.00
12438;DHT22;6283;51.330;12.374;2024-03-29T11:17:29;13.90;1.00
12438;DHT22;6283;51.330;12.374;2024-03-29T11:19:57;13.90;1.00
12438;DHT22;6283;51.330;12.374;2024-03-29T11:22:24;13.90;1.00
12438;DHT22;6283;51.330;12.374;2024-03-29T11:24:53;13.90;1.00
12438;DHT22;6283;51.330;12.374;2024-03-29T11:27:22;14.30;1.00
12438;DHT22;6283;51.330;12.374;2024-03-29T11:29:49;14.20;1.00
12438;DHT22;6283;51.330;12.374;2024-03-29T11:32:36;14.40;1.00
12438;DHT22;6283;51.330;12.374;2024-03-29T11:35:04;14.60;1.00
12438;DHT22;6283;51.330;12.374;2024-03-29T11:37:31;14.50;1.00
12438;DHT22;6283;51.330;12.374;2024-03-29T11:39:59;14.40;1.00
12438;DHT22;6283;51.330;12.374;2024-03-29T11:42:36;14.50;1.00
12438;DHT22;6283;51.330;12.374;2024-03-29T11:45:02;14.70;1.00
12438;DHT22;6283;51.330;12.374;2024-03-29T11:47:28;14.70;1.00
12438;DHT22;6283;51.330;12.374;2024-03-29T11:49:58;14.80;1.00
12438;DHT22;6283;51.330;12.374;2024-03-29T11:52:26;14.70;1.00
12438;DHT22;6283;51.330;12.374;2024-03-29T11:54:54;14.60;1.00
12438;DHT22;6283;51.330;12.374;2024-03-29T11:57:19;14.90;1.00
12438;DHT22;6283;51.330;12.374;2024-03-29T11:59:45;14.90;1.00
12438;DHT22;6283;51.330;12.374;2024-03-29T12:02:13;14.90;1.00
12438;DHT22;6283;51.330;12.374;2024-03-29T12:04:41;14.90;1.00
12438;DHT22;6283;51.330;12.374;2024-03-29T12:07:07;14.90;1.00
12438;DHT22;6283;51.330;12.374;2024-03-29T12:09:32;14.90;1.00
12438;DHT22;6283;51.330;12.374;2024-03-29T12:11:58;15.00;1.00
12438;DHT22;6283;51.330;12.374;2024-03-29T12:14:29;15.00;1.00
12438;DHT22;6283;51.330;12.374;2024-03-29T12:17:00;15.10;1.00
12438;DHT22;6283;51.330;12.374;2024-03-29T12:19:26;15.10;1.00
12438;DHT22;6283;51.330;12.374;2024-03-29T12:21:53;15.10;1.00
12438;DHT22;6283;51.330;12.374;2024-03-29T12:24:19;15.20;1.00
12438;DHT22;6283;51.330;12.374;2024-03-29T12:26:48;15.20;1.00
12438;DHT22;6283;51.330;12.374;2024-03-29T12:29:13;15.20;1.00
12438;DHT22;6283;51.330;12.374;2024-03-29T12:31:39;15.00;1.00
12438;DHT22;6283;51.330;12.374;2024-03-29T12:34:05;15.30;1.00
12438;DHT22;6283;51.330;12.374;2024-03-29T12:36:33;15.30;1.00
12438;DHT22;6283;51.330;12.374;2024-03-29T12:38:59;15.40;1.00
12438;DHT22;6283;51.330;12.374;2024-03-29T12:41:29;15.50;1.00
12438;DHT22;6283;51.330;12.374;2024-03-29T12:43:55;15.50;1.00
12438;DHT22;6283;51.330;12.374;2024-03-29T12:46:21;15.70;1.00
12438;DHT22;6283;51.330;12.374;2024-03-29T12:48:46;15.90;1.00
12438;DHT22;6283;51.330;12.374;2024-03-29T12:51:12;15.90;1.00
12438;DHT22;6283;51.330;12.374;2024-03-29T12:53:39;16.00;1.00
12438;DHT22;6283;51.330;12.374;2024-03-29T12:56:04;15.90;1.00
12438;DHT22;6283;51.330;12.374;2024-03-29T12:58:30;15.60;1.00
12438;DHT22;6283;51.330;12.374;2024-03-29T13:00:56;15.60;1.00
12438;DHT22;6283;51.330;12.374;2024-03-29T13:03:21;15.70;1.00
12438;DHT22;6283;51.330;12.374;2024-03-29T13:05:47;15.90;1.00
12438;DHT22;6283;51.330;12.374;2024-03-29T13:08:14;15.80;1.00
12438;DHT22;6283;51.330;12.374;2024-03-29T13:10:43;15.70;1.00
12438;DHT22;6283;51.330;12.374;2024-03-29T13:13:12;15.70;1.00
12438;DHT22;6283;51.330;12.374;2024-03-29T13:15:39;15.70;1.00
12438;DHT22;6283;51.330;12.374;2024-03-29T13:18:06;15.50;1.00
12438;DHT22;6283;51.330;12.374;2024-03-29T13:20:34;15.40;1.00
12438;DHT22;6283;51.330;12.374;2024-03-29T13:23:02;15.40;1.00
12438;DHT22;6283;51.330;12.374;2024-03-29T13:25:28;15.40;1.00
12438;DHT22;6283;51.330;12.374;2024-03-29T13:27:54;15.30;1.00
12438;DHT22;6283;51.330;12.374;2024-03-29T13:30:25;15.30;1.00
12438;DHT22;6283;51.330;12.374;2024-03-29T13:32:51;15.00;1.00
12438;DHT22;6283;51.330;12.374;2024-03-29T13:35:17;15.10;1.00
12438;DHT22;6283;51.330;12.374;2024-03-29T13:37:47;15.00;1.00
12438;DHT22;6283;51.330;12.374;2024-03-29T13:40:14;14.90;1.00
12438;DHT22;6283;51.330;12.374;2024-03-29T13:42:40;15.20;1.00
12438;DHT22;6283;51.330;12.374;2024-03-29T13:45:07;15.00;1.00
12438;DHT22;6283;51.330;12.374;2024-03-29T13:47:34;15.00;1.00
12438;DHT22;6283;51.330;12.374;2024-03-29T13:50:00;15.30;1.00
12438;DHT22;6283;51.330;12.374;2024-03-29T13:52:25;15.40;1.00
12438;DHT22;6283;51.330;12.374;2024-03-29T13:54:53;15.30;1.00
12438;DHT22;6283;51.330;12.374;2024-03-29T13:57:19;15.50;1.00
12438;DHT22;6283;51.330;12.374;2024-03-29T13:59:45;15.50;1.00
12438;DHT22;6283;51.330;12.374;2024-03-29T14:02:11;15.60;1.00
12438;DHT22;6283;51.330;12.374;2024-03-29T14:04:37;15.70;1.00
12438;DHT22;6283;51.330;12.374;2024-03-29T14:07:03;15.80;1.00
12438;DHT22;6283;51.330;12.374;2024-03-29T14:09:34;15.80;1.00
12438;DHT22;6283;51.330;12.374;2024-03-29T14:11:59;15.90;1.00
12438;DHT22;6283;51.330;12.374;2024-03-29T14:14:25;15.90;1.00
12438;DHT22;6283;51.330;12.374;2024-03-29T14:16:51;16.00;1.00
12438;DHT22;6283;51.330;12.374;2024-03-29T14:19:16;15.80;1.00
12438;DHT22;6283;51.330;12.374;2024-03-29T14:21:42;15.70;1.00
12438;DHT22;6283;51.330;12.374;2024-03-29T14:24:08;15.50;1.00
12438;DHT22;6283;51.330;12.374;2024-03-29T14:26:33;15.50;1.00
12438;DHT22;6283;51.330;12.374;2024-03-29T14:28:59;15.40;1.00
12438;DHT22;6283;51.330;12.374;2024-03-29T14:31:25;15.40;1.00
12438;DHT22;6283;51.330;12.374;2024-03-29T14:33:50;15.30;1.00
12438;DHT22;6283;51.330;12.374;2024-03-29T14:36:16;15.30;1.00
12438;DHT22;6283;51.330;12.374;2024-03-29T14:38:44;15.20;1.00
12438;DHT22;6283;51.330;12.374;2024-03-29T14:41:09;15.10;1.00
12438;DHT22;6283;51.330;12.374;2024-03-29T14:43:36;15.30;1.00
12438;DHT22;6283;51.330;12.374;2024-03-29T14:46:02;15.10;1.00
12438;DHT22;6283;51.330;12.374;2024-03-29T14:48:27;15.00;1.00
12438;DHT22;6283;51.330;12.374;2024-03-29T14:50:53;15.00;1.00
12438;DHT22;6283;51.330;12.374;2024-03-29T14:53:22;15.00;1.00
12438;DHT22;6283;51.330;12.374;2024-03-29T14:55:47;15.20;1.00
12438;DHT22;6283;51.330;12.374;2024-03-29T14:58:13;14.90;1.00
12438;DHT22;6283;51.330;12.374;2024-03-29T15:00:39;14.90;1.00
12438;DHT22;6283;51.330;12.374;2024-03-29T15:03:04;14.90;1.00
12438;DHT22;6283;51.330;12.374;2024-03-29T15:05:30;14.90;1.00
12438;DHT22;6283;51.330;12.374;2024-03-29T15:07:56;14.90;1.00
12438;DHT22;6283;51.330;12.374;2024-03-29T15:10:22;14.80;1.00
12438;DHT22;6283;51.330;12.374;2024-03-29T15:12:49;14.80;1.00
12438;DHT22;6283;51.330;12.374;2024-03-29T15:15:18;14.80;1.00
12438;DHT22;6283;51.330;12.374;2024-03-29T15:17:44;14.80;1.00
12438;DHT22;6283;51.330;12.374;2024-03-29T15:20:10;14.80;1.00
12438;DHT22;6283;51.330;12.374;2024-03-29T15:22:37;14.70;1.00
12438;DHT22;6283;51.330;12.374;2024-03-29T15:25:04;14.80;1.00
12438;DHT22;6283;51.330;12.374;2024-03-29T15:27:29;14.90;1.00
12438;DHT22;6283;51.330;12.374;2024-03-29T15:30:21;14.80;1.00
12438;DHT22;6283;51.330;12.374;2024-03-29T15:32:47;14.80;1.00
12438;DHT22;6283;51.330;12.374;2024-03-29T15:35:13;15.00;1.00
12438;DHT22;6283;51.330;12.374;2024-03-29T15:37:38;14.90;1.00
12438;DHT22;6283;51.330;12.374;2024-03-29T15:40:04;14.90;1.00
12438;DHT22;6283;51.330;12.374;2024-03-29T15:42:32;14.80;1.00
12438;DHT22;6283;51.330;12.374;2024-03-29T15:45:01;14.90;1.00
12438;DHT22;6283;51.330;12.374;2024-03-29T15:47:26;14.80;1.00
12438;DHT22;6283;51.330;12.374;2024-03-29T15:49:54;14.80;1.00